Time,TemperatureF,DewpointF,PressureIn,WindDirection,WindDirectionDegrees,WindSpeedMPH,WindSpeedGustMPH,Humidity,HourlyPrecipIn,Conditions,Clouds,dailyrainin,SoftwareType,DateUTC
2013-09-07 00:13:00,72.9,56.0,29.84,ESE,121,0.0,5.0,56,0.00,,,0.00,weatherlink.com 1.10,2013-09-07 05:13:00,
2013-09-07 00:28:00,72.3,56.0,29.84,SE,129,0.0,2.0,57,0.00,,,0.00,weatherlink.com 1.10,2013-09-07 05:28:00,
2013-09-07 00:44:00,70.9,55.0,29.83,SE,130,0.0,1.0,58,0.00,,,0.00,weatherlink.com 1.10,2013-09-07 05:44:00,
2013-09-07 00:58:00,70.6,56.0,29.83,SE,129,0.0,0.0,60,0.00,,,0.00,weatherlink.com 1.10,2013-09-07 05:58:00,
2013-09-07 01:14:00,71.0,56.0,29.83,East,96,0.0,5.0,59,0.00,,,0.00,weatherlink.com 1.10,2013-09-07 06:14:00,
2013-09-07 01:29:00,69.5,56.0,29.83,East,96,0.0,0.0,62,0.00,,,0.00,weatherlink.com 1.10,2013-09-07 06:29:00,
2013-09-07 01:44:00,68.5,55.0,29.83,SSE,155,0.0,2.0,62,0.00,,,0.00,weatherlink.com 1.10,2013-09-07 06:44:00,
2013-09-07 01:59:00,68.9,56.0,29.83,SSE,154,0.0,3.0,63,0.00,,,0.00,weatherlink.com 1.10,2013-09-07 06:59:00,
2013-09-07 02:14:00,69.3,56.0,29.83,SSE,154,0.0,0.0,63,0.00,,,0.00,weatherlink.com 1.10,2013-09-07 07:14:00,
2013-09-07 02:29:00,69.6,56.0,29.83,SSE,153,0.0,1.0,63,0.00,,,0.00,weatherlink.com 1.10,2013-09-07 07:29:00,
2013-09-07 02:44:00,69.2,57.0,29.82,SE,144,0.0,3.0,65,0.00,,,0.00,weatherlink.com 1.10,2013-09-07 07:44:00,
2013-09-07 02:59:00,67.8,56.0,29.82,SE,140,0.0,2.0,66,0.00,,,0.00,weatherlink.com 1.10,2013-09-07 07:59:00,
2013-09-07 03:14:00,68.1,57.0,29.82,SE,140,0.0,1.0,67,0.00,,,0.00,weatherlink.com 1.10,2013-09-07 08:14:00,
2013-09-07 03:29:00,68.7,57.0,29.82,SE,140,0.0,1.0,67,0.00,,,0.00,weatherlink.com 1.10,2013-09-07 08:29:00,
2013-09-07 03:44:00,68.0,57.0,29.82,SE,140,0.0,1.0,68,0.00,,,0.00,weatherlink.com 1.10,2013-09-07 08:44:00,
2013-09-07 03:59:00,68.0,57.0,29.82,SE,140,0.0,0.0,69,0.00,,,0.00,weatherlink.com 1.10,2013-09-07 08:59:00,
2013-09-07 04:14:00,67.5,57.0,29.82,SE,140,0.0,0.0,70,0.00,,,0.00,weatherlink.com 1.10,2013-09-07 09:14:00,
2013-09-07 04:29:00,67.6,58.0,29.82,SE,136,1.0,3.0,71,0.00,,,0.00,weatherlink.com 1.10,2013-09-07 09:29:00,
2013-09-07 04:44:00,67.6,58.0,29.82,ESE,118,0.0,3.0,71,0.00,,,0.00,weatherlink.com 1.10,2013-09-07 09:44:00,
2013-09-07 04:59:00,65.7,57.0,29.81,ESE,118,0.0,0.0,73,0.00,,,0.00,weatherlink.com 1.10,2013-09-07 09:59:00,
2013-09-07 05:14:00,66.6,57.0,29.82,SE,126,0.0,2.0,72,0.00,,,0.00,weatherlink.com 1.10,2013-09-07 10:14:00,
2013-09-07 05:29:00,65.3,57.0,29.81,SE,126,0.0,0.0,75,0.00,,,0.00,weatherlink.com 1.10,2013-09-07 10:29:00,
2013-09-07 05:44:00,65.7,58.0,29.81,SE,126,0.0,0.0,75,0.00,,,0.00,weatherlink.com 1.10,2013-09-07 10:44:00,
2013-09-07 05:59:00,64.9,57.0,29.81,SE,127,0.0,0.0,75,0.00,,,0.00,weatherlink.com 1.10,2013-09-07 10:59:00,
2013-09-07 06:14:00,65.6,58.0,29.82,SE,127,0.0,0.0,75,0.00,,,0.00,weatherlink.com 1.10,2013-09-07 11:14:00,
2013-09-07 06:29:00,65.3,57.0,29.83,SE,127,0.0,0.0,75,0.00,,,0.00,weatherlink.com 1.10,2013-09-07 11:29:00,
2013-09-07 06:44:00,65.2,57.0,29.83,SE,127,0.0,0.0,76,0.00,,,0.00,weatherlink.com 1.10,2013-09-07 11:44:00,
2013-09-07 06:59:00,63.8,57.0,29.83,SE,127,0.0,0.0,79,0.00,,,0.00,weatherlink.com 1.10,2013-09-07 11:59:00,
2013-09-07 07:14:00,64.3,57.0,29.83,SE,127,0.0,0.0,78,0.00,,,0.00,weatherlink.com 1.10,2013-09-07 12:14:00,
2013-09-07 07:29:00,64.7,57.0,29.84,SE,127,0.0,0.0,77,0.00,,,0.00,weatherlink.com 1.10,2013-09-07 12:29:00,
2013-09-07 07:44:00,63.8,57.0,29.84,SE,127,0.0,0.0,78,0.00,,,0.00,weatherlink.com 1.10,2013-09-07 12:44:00,
2013-09-07 07:59:00,63.4,57.0,29.84,SE,127,0.0,0.0,79,0.00,,,0.00,weatherlink.com 1.10,2013-09-07 12:59:00,
2013-09-07 08:14:00,62.2,56.0,29.85,SE,129,0.0,0.0,81,0.00,,,0.00,weatherlink.com 1.10,2013-09-07 13:14:00,
2013-09-07 08:29:00,63.6,57.0,29.86,SE,129,0.0,0.0,79,0.00,,,0.00,weatherlink.com 1.10,2013-09-07 13:29:00,
2013-09-07 08:44:00,65.4,58.0,29.86,SE,130,0.0,0.0,77,0.00,,,0.00,weatherlink.com 1.10,2013-09-07 13:44:00,
2013-09-07 08:59:00,67.5,58.0,29.86,SE,129,0.0,0.0,72,0.00,,,0.00,weatherlink.com 1.10,2013-09-07 13:59:00,
2013-09-07 09:14:00,69.3,59.0,29.86,SSE,156,0.0,0.0,70,0.00,,,0.00,weatherlink.com 1.10,2013-09-07 14:14:00,
2013-09-07 09:29:00,71.8,60.0,29.86,SSE,157,2.0,2.0,66,0.00,,,0.00,weatherlink.com 1.10,2013-09-07 14:29:00,
2013-09-07 09:45:00,73.3,59.0,29.86,SE,144,0.0,1.0,62,0.00,,,0.00,weatherlink.com 1.10,2013-09-07 14:45:00,
2013-09-07 10:00:00,74.8,59.0,29.85,ESE,109,2.0,5.0,59,0.00,,,0.00,weatherlink.com 1.10,2013-09-07 15:00:00,
2013-09-07 10:15:00,75.5,60.0,29.85,WSW,257,0.0,11.0,59,0.00,,,0.00,weatherlink.com 1.10,2013-09-07 15:15:00,
2013-09-07 10:30:00,76.6,59.0,29.85,ESE,121,3.0,7.0,55,0.00,,,0.00,weatherlink.com 1.10,2013-09-07 15:30:00,
2013-09-07 10:45:00,77.2,60.0,29.86,East,100,1.0,9.0,55,0.00,,,0.00,weatherlink.com 1.10,2013-09-07 15:45:00,
2013-09-07 11:00:00,77.8,59.0,29.86,East,96,3.0,10.0,52,0.00,,,0.00,weatherlink.com 1.10,2013-09-07 16:00:00,
2013-09-07 11:15:00,79.0,59.0,29.86,SSE,157,5.0,11.0,50,0.00,,,0.00,weatherlink.com 1.10,2013-09-07 16:15:00,
2013-09-07 11:30:00,79.8,59.0,29.86,ESE,109,1.0,8.0,49,0.00,,,0.00,weatherlink.com 1.10,2013-09-07 16:30:00,
2013-09-07 11:45:00,81.0,58.0,29.86,ESE,113,5.0,11.0,46,0.00,,,0.00,weatherlink.com 1.10,2013-09-07 16:45:00,
2013-09-07 12:00:00,82.4,58.0,29.85,ESE,111,8.0,14.0,44,0.00,,,0.00,weatherlink.com 1.10,2013-09-07 17:00:00,
2013-09-07 12:15:00,81.5,57.0,29.85,South,178,6.0,13.0,43,0.00,,,0.00,weatherlink.com 1.10,2013-09-07 17:15:00,
2013-09-07 12:30:00,81.6,58.0,29.85,SSE,153,8.0,11.0,44,0.00,,,0.00,weatherlink.com 1.10,2013-09-07 17:30:00,
2013-09-07 12:45:00,83.6,57.0,29.84,East,90,3.0,11.0,40,0.00,,,0.00,weatherlink.com 1.10,2013-09-07 17:45:00,
2013-09-07 13:00:00,83.6,57.0,29.83,ESE,116,8.0,12.0,41,0.00,,,0.00,weatherlink.com 1.10,2013-09-07 18:00:00,
2013-09-07 13:15:00,83.8,56.0,29.83,ESE,113,7.0,8.0,39,0.00,,,0.00,weatherlink.com 1.10,2013-09-07 18:15:00,
2013-09-07 13:30:00,83.4,56.0,29.82,South,171,0.0,9.0,39,0.00,,,0.00,weatherlink.com 1.10,2013-09-07 18:30:00,
2013-09-07 13:45:00,84.4,56.0,29.82,SE,127,4.0,12.0,38,0.00,,,0.00,weatherlink.com 1.10,2013-09-07 18:45:00,
2013-09-07 14:00:00,83.7,55.0,29.81,ENE,73,5.0,13.0,38,0.00,,,0.00,weatherlink.com 1.10,2013-09-07 19:00:00,
2013-09-07 14:15:00,85.7,56.0,29.81,ESE,119,0.0,13.0,36,0.00,,,0.00,weatherlink.com 1.10,2013-09-07 19:15:00,
2013-09-07 14:30:00,86.6,56.0,29.80,SSE,166,1.0,11.0,35,0.00,,,0.00,weatherlink.com 1.10,2013-09-07 19:30:00,
2013-09-07 14:45:00,85.6,55.0,29.79,ESE,109,10.0,10.0,35,0.00,,,0.00,weatherlink.com 1.10,2013-09-07 19:45:00,
2013-09-07 15:00:00,86.5,54.0,29.79,ESE,121,8.0,10.0,33,0.00,,,0.00,weatherlink.com 1.10,2013-09-07 20:00:00,
2013-09-07 15:16:00,86.1,53.0,29.78,SE,135,4.0,10.0,32,0.00,,,0.00,weatherlink.com 1.10,2013-09-07 20:16:00,
2013-09-07 15:31:00,88.0,55.0,29.77,SSE,157,5.0,16.0,32,0.00,,,0.00,weatherlink.com 1.10,2013-09-07 20:31:00,
2013-09-07 15:46:00,88.5,54.0,29.77,ESE,111,7.0,16.0,31,0.00,,,0.00,weatherlink.com 1.10,2013-09-07 20:46:00,
2013-09-07 16:01:00,88.4,54.0,29.76,SE,131,7.0,16.0,31,0.00,,,0.00,weatherlink.com 1.10,2013-09-07 21:01:00,
2013-09-07 16:16:00,87.8,53.0,29.75,South,169,0.0,13.0,30,0.00,,,0.00,weatherlink.com 1.10,2013-09-07 21:16:00,
2013-09-07 16:31:00,88.4,52.0,29.75,East,101,10.0,16.0,29,0.00,,,0.00,weatherlink.com 1.10,2013-09-07 21:31:00,
2013-09-07 16:46:00,87.1,53.0,29.74,ESE,103,5.0,16.0,31,0.00,,,0.00,weatherlink.com 1.10,2013-09-07 21:46:00,
2013-09-07 17:01:00,89.0,53.0,29.74,East,98,10.0,16.0,29,0.00,,,0.00,weatherlink.com 1.10,2013-09-07 22:01:00,
2013-09-07 17:16:00,87.5,52.0,29.73,South,169,5.0,21.0,30,0.00,,,0.00,weatherlink.com 1.10,2013-09-07 22:16:00,
2013-09-07 17:31:00,88.0,53.0,29.73,ESE,105,9.0,13.0,30,0.00,,,0.00,weatherlink.com 1.10,2013-09-07 22:31:00,
2013-09-07 18:01:00,84.7,53.0,29.73,ESE,115,8.0,15.0,33,0.00,,,0.00,weatherlink.com 1.10,2013-09-07 23:01:00,
2013-09-07 18:16:00,84.7,52.0,29.73,ESE,119,4.0,12.0,32,0.00,,,0.00,weatherlink.com 1.10,2013-09-07 23:16:00,
2013-09-07 18:31:00,84.1,53.0,29.73,SE,138,6.0,14.0,34,0.00,,,0.00,weatherlink.com 1.10,2013-09-07 23:31:00,
2013-09-07 18:46:00,83.6,54.0,29.73,ESE,108,7.0,19.0,36,0.00,,,0.00,weatherlink.com 1.10,2013-09-07 23:46:00,
2013-09-07 19:01:00,83.0,53.0,29.72,ESE,109,8.0,16.0,35,0.00,,,0.00,weatherlink.com 1.10,2013-09-08 00:01:00,
2013-09-07 19:16:00,82.5,53.0,29.72,ESE,102,4.0,14.0,36,0.00,,,0.00,weatherlink.com 1.10,2013-09-08 00:16:00,
2013-09-07 19:31:00,81.9,54.0,29.73,ESE,111,5.0,17.0,38,0.00,,,0.00,weatherlink.com 1.10,2013-09-08 00:31:00,
2013-09-07 19:46:00,81.4,53.0,29.72,ESE,105,8.0,13.0,38,0.00,,,0.00,weatherlink.com 1.10,2013-09-08 00:46:00,
2013-09-07 20:01:00,80.9,54.0,29.73,ESE,116,9.0,13.0,39,0.00,,,0.00,weatherlink.com 1.10,2013-09-08 01:01:00,
2013-09-07 20:16:00,80.3,54.0,29.73,SE,131,7.0,13.0,40,0.00,,,0.00,weatherlink.com 1.10,2013-09-08 01:16:00,
2013-09-07 20:31:00,79.7,54.0,29.73,SSE,148,3.0,16.0,41,0.00,,,0.00,weatherlink.com 1.10,2013-09-08 01:31:00,
2013-09-07 20:46:00,79.3,54.0,29.74,East,94,9.0,14.0,41,0.00,,,0.00,weatherlink.com 1.10,2013-09-08 01:46:00,
2013-09-07 21:01:00,78.7,54.0,29.75,East,97,5.0,12.0,43,0.00,,,0.00,weatherlink.com 1.10,2013-09-08 02:01:00,
2013-09-07 21:16:00,78.2,54.0,29.75,East,86,7.0,15.0,44,0.00,,,0.00,weatherlink.com 1.10,2013-09-08 02:16:00,
2013-09-07 21:31:00,77.7,54.0,29.75,SE,127,5.0,13.0,44,0.00,,,0.00,weatherlink.com 1.10,2013-09-08 02:31:00,
2013-09-07 21:46:00,77.2,54.0,29.76,ESE,119,2.0,11.0,44,0.00,,,0.00,weatherlink.com 1.10,2013-09-08 02:46:00,
2013-09-07 22:01:00,76.8,53.0,29.76,SE,127,5.0,14.0,44,0.00,,,0.00,weatherlink.com 1.10,2013-09-08 03:01:00,
2013-09-07 22:16:00,76.7,54.0,29.77,ESE,111,8.0,18.0,45,0.00,,,0.00,weatherlink.com 1.10,2013-09-08 03:16:00,
2013-09-07 22:31:00,76.1,54.0,29.78,SE,138,3.0,13.0,46,0.00,,,0.00,weatherlink.com 1.10,2013-09-08 03:31:00,
2013-09-07 22:46:00,75.7,54.0,29.78,ESE,107,5.0,9.0,47,0.00,,,0.00,weatherlink.com 1.10,2013-09-08 03:46:00,
2013-09-07 23:01:00,75.3,54.0,29.78,ESE,108,2.0,10.0,48,0.00,,,0.00,weatherlink.com 1.10,2013-09-08 04:01:00,
2013-09-07 23:16:00,74.9,54.0,29.79,ESE,111,0.0,8.0,48,0.00,,,0.00,weatherlink.com 1.10,2013-09-08 04:16:00,
2013-09-07 23:31:00,73.7,54.0,29.79,ESE,111,0.0,0.0,50,0.00,,,0.00,weatherlink.com 1.10,2013-09-08 04:31:00,
2013-09-07 23:46:00,72.9,54.0,29.79,ESE,112,0.0,0.0,52,0.00,,,0.00,weatherlink.com 1.10,2013-09-08 04:46:00,